createdAt,value
2023-03-05T00:00:07.746Z,9.443620
2023-03-05T00:01:07.768Z,9.443621
2023-03-05T00:02:07.793Z,9.443624
2023-03-05T00:03:07.745Z,9.443589
2023-03-05T00:04:07.748Z,9.443733
2023-03-05T00:05:07.704Z,9.443797
2023-03-05T00:06:07.697Z,9.443713
2023-03-05T00:07:07.722Z,9.443636
2023-03-05T00:08:07.713Z,9.443580
2023-03-05T00:09:07.700Z,9.443637
2023-03-05T00:10:07.696Z,9.443627
2023-03-05T00:11:07.676Z,9.443668
2023-03-05T00:12:07.709Z,9.443686
2023-03-05T00:13:07.669Z,9.443715
2023-03-05T00:14:07.647Z,9.443720
2023-03-05T00:15:07.657Z,9.443598
2023-03-05T00:16:07.750Z,9.443715
2023-03-05T00:17:07.656Z,9.443822
2023-03-05T00:18:07.623Z,9.443804
2023-03-05T00:19:07.645Z,9.443726
2023-03-05T00:20:07.625Z,9.443646
2023-03-05T00:21:07.612Z,9.443600
2023-03-05T00:22:07.635Z,9.443657
2023-03-05T00:23:07.599Z,9.443763
2023-03-05T00:24:07.604Z,9.443709
2023-03-05T00:25:07.655Z,9.443651
2023-03-05T00:26:07.631Z,9.443644
2023-03-05T00:27:07.585Z,9.443700
2023-03-05T00:28:07.600Z,9.443684
2023-03-05T00:29:08.157Z,9.443756
2023-03-05T00:30:07.570Z,9.443785
2023-03-05T00:31:07.595Z,9.443594
2023-03-05T00:32:07.626Z,9.443746
2023-03-05T00:33:07.552Z,9.443901
2023-03-05T00:34:07.550Z,9.443806
2023-03-05T00:35:07.530Z,9.443509
2023-03-05T00:36:07.560Z,9.443488
2023-03-05T00:37:07.579Z,9.443533
2023-03-05T00:38:07.541Z,9.443354
2023-03-05T00:39:07.505Z,9.443640
2023-03-05T00:40:07.649Z,9.443684
2023-03-05T00:41:07.487Z,9.443710
2023-03-05T00:42:07.479Z,9.443507
2023-03-05T00:43:07.537Z,9.443650
2023-03-05T00:44:07.477Z,9.443600
2023-03-05T00:45:07.476Z,9.443480
2023-03-05T00:46:07.562Z,9.443419
2023-03-05T00:47:07.461Z,9.443290
2023-03-05T00:48:07.466Z,9.443418
2023-03-05T00:49:07.505Z,9.443546
2023-03-05T00:50:07.456Z,9.443396
2023-03-05T00:51:07.419Z,9.443246
2023-03-05T00:52:07.468Z,9.443717
2023-03-05T00:53:07.441Z,9.443836
2023-03-05T00:54:07.472Z,9.443732
2023-03-05T00:55:07.462Z,9.443747
2023-03-05T00:56:07.390Z,9.443719
2023-03-05T00:57:07.411Z,9.443739
2023-03-05T00:58:07.382Z,9.443795
2023-03-05T00:59:07.426Z,9.443716
2023-03-05T01:00:07.364Z,9.443769
2023-03-05T01:01:07.353Z,9.443756
2023-03-05T01:02:07.362Z,9.443756
2023-03-05T01:03:07.334Z,9.443748
2023-03-05T01:04:08.357Z,9.443769
2023-03-05T01:05:07.404Z,9.443793
2023-03-05T01:06:07.314Z,9.443769
2023-03-05T01:07:07.359Z,9.443750
2023-03-05T01:08:07.324Z,9.443776
2023-03-05T01:09:07.294Z,9.443742
2023-03-05T01:10:07.311Z,9.443736
2023-03-05T01:11:07.284Z,9.443739
2023-03-05T01:12:07.271Z,9.443726
2023-03-05T01:13:07.298Z,9.443748
2023-03-05T01:14:07.260Z,9.443735
2023-03-05T01:15:07.277Z,9.443812
2023-03-05T01:16:07.270Z,9.443789
2023-03-05T01:17:07.235Z,9.443804
2023-03-05T01:18:07.236Z,9.443747
2023-03-05T01:19:07.227Z,9.443813
2023-03-05T01:20:07.233Z,9.443777
2023-03-05T01:21:07.242Z,9.443798
2023-03-05T01:22:07.203Z,9.443769
2023-03-05T01:23:07.187Z,9.443779
2023-03-05T01:24:07.214Z,9.443780
2023-03-05T01:25:07.199Z,9.443764
2023-03-05T01:26:07.173Z,9.443717
2023-03-05T01:27:07.185Z,9.443708
2023-03-05T01:28:07.169Z,9.443738
2023-03-05T01:29:07.157Z,9.443676
2023-03-05T01:30:07.200Z,9.443741
2023-03-05T01:31:07.168Z,9.443765
2023-03-05T01:32:07.186Z,9.443767
2023-03-05T01:33:07.184Z,9.443764
2023-03-05T01:34:07.117Z,9.443788
2023-03-05T01:35:07.137Z,9.443771
2023-03-05T01:36:07.185Z,9.443749
2023-03-05T01:37:07.154Z,9.443696
2023-03-05T01:38:07.671Z,9.443768
2023-03-05T01:39:07.124Z,9.443817
2023-03-05T01:40:07.091Z,9.443773
2023-03-05T01:41:07.084Z,9.443770
2023-03-05T01:42:07.130Z,9.443766
2023-03-05T01:43:07.073Z,9.443800
2023-03-05T01:44:07.071Z,9.443776
2023-03-05T01:45:07.092Z,9.443763
2023-03-05T01:46:07.248Z,9.443728
2023-03-05T01:47:07.053Z,9.443713
2023-03-05T01:48:07.069Z,9.443751
2023-03-05T01:49:07.051Z,9.443727
2023-03-05T01:50:07.042Z,9.443762
2023-03-05T01:51:07.034Z,9.443779
2023-03-05T01:52:07.129Z,9.443760
2023-03-05T01:53:07.196Z,9.443785
2023-03-05T01:54:07.024Z,9.443710
2023-03-05T01:55:07.028Z,9.443708
2023-03-05T01:56:06.986Z,9.443723
2023-03-05T01:57:06.981Z,9.443745
2023-03-05T01:58:07.009Z,9.443783
2023-03-05T01:59:07.003Z,9.443801
2023-03-05T02:00:06.987Z,9.443782
2023-03-05T02:01:07.045Z,9.443794
2023-03-05T02:02:06.953Z,9.443774
2023-03-05T02:03:06.942Z,9.443793
2023-03-05T02:04:07.044Z,9.443825
2023-03-05T02:05:06.927Z,9.443789
2023-03-05T02:06:07.928Z,9.443769
2023-03-05T02:07:06.946Z,9.443785
2023-03-05T02:08:06.912Z,9.443763
2023-03-05T02:09:06.920Z,9.443819
2023-03-05T02:10:06.908Z,9.443808
2023-03-05T02:11:07.895Z,9.443735
2023-03-05T02:12:06.887Z,9.443745
2023-03-05T02:13:06.925Z,9.443799
2023-03-05T02:14:09.044Z,9.443781
2023-03-05T02:15:06.879Z,9.443824
2023-03-05T02:16:06.932Z,9.443796
2023-03-05T02:17:06.868Z,9.443756
2023-03-05T02:18:06.993Z,9.443726
2023-03-05T02:19:06.896Z,9.443764
2023-03-05T02:20:06.847Z,9.443816
2023-03-05T02:21:06.837Z,9.443785
2023-03-05T02:22:06.836Z,9.443794
2023-03-05T02:23:06.820Z,9.443793
2023-03-05T02:24:06.834Z,9.443771
2023-03-05T02:25:06.843Z,9.443821
2023-03-05T02:26:06.956Z,9.443836
2023-03-05T02:27:06.810Z,9.443831
2023-03-05T02:28:06.804Z,9.443885
2023-03-05T02:29:06.796Z,9.443887
2023-03-05T02:30:06.816Z,9.443846
2023-03-05T02:31:06.791Z,9.443769
2023-03-05T02:32:06.906Z,9.443763
2023-03-05T02:33:06.767Z,9.443728
2023-03-05T02:34:06.951Z,9.443773
2023-03-05T02:35:06.758Z,9.443735
2023-03-05T02:36:06.776Z,9.443719
2023-03-05T02:37:06.784Z,9.443621
2023-03-05T02:38:06.749Z,9.443873
2023-03-05T02:39:06.738Z,9.443767
2023-03-05T02:40:06.760Z,9.443619
2023-03-05T02:41:06.724Z,9.443448
2023-03-05T02:42:06.752Z,9.443379
2023-03-05T02:43:06.748Z,9.443454
2023-03-05T02:44:06.718Z,9.443377
2023-03-05T02:45:06.713Z,9.443231
2023-03-05T02:46:06.754Z,9.443426
2023-03-05T02:47:06.693Z,9.443480
2023-03-05T02:48:06.707Z,9.443435
2023-03-05T02:49:06.728Z,9.443547
2023-03-05T02:50:06.682Z,9.443557
2023-03-05T02:51:06.676Z,9.443635
2023-03-05T02:52:06.799Z,9.443697
2023-03-05T02:53:06.687Z,9.443641
2023-03-05T02:54:06.655Z,9.443543
2023-03-05T02:55:06.669Z,9.443569
2023-03-05T02:56:06.638Z,9.443575
2023-03-05T02:57:06.687Z,9.443521
2023-03-05T02:58:06.660Z,9.443520
2023-03-05T02:59:06.625Z,9.443513
2023-03-05T03:00:06.684Z,9.443547
2023-03-05T03:01:06.693Z,9.443621
2023-03-05T03:02:06.604Z,9.443619
2023-03-05T03:03:06.668Z,9.443663
2023-03-05T03:04:06.622Z,9.443521
2023-03-05T03:05:06.599Z,9.443577
2023-03-05T03:06:06.582Z,9.443461
2023-03-05T03:07:06.605Z,9.443501
2023-03-05T03:08:06.562Z,9.443503
2023-03-05T03:09:06.584Z,9.443504
2023-03-05T03:10:06.576Z,9.443502
2023-03-05T03:11:06.550Z,9.443490
2023-03-05T03:12:06.536Z,9.443484
2023-03-05T03:13:06.557Z,9.443575
2023-03-05T03:14:06.550Z,9.443594
2023-03-05T03:15:06.524Z,9.443602
2023-03-05T03:16:06.559Z,9.443620
2023-03-05T03:17:06.556Z,9.443610
2023-03-05T03:18:07.499Z,9.443677
2023-03-05T03:19:06.547Z,9.443717
2023-03-05T03:20:06.513Z,9.443638
2023-03-05T03:21:06.504Z,9.443600
2023-03-05T03:22:06.548Z,9.443606
2023-03-05T03:23:06.478Z,9.443680
2023-03-05T03:24:06.474Z,9.443678
2023-03-05T03:25:06.499Z,9.443668
2023-03-05T03:26:06.472Z,9.443704
2023-03-05T03:27:06.464Z,9.443719
2023-03-05T03:28:06.496Z,9.443678
2023-03-05T03:29:06.453Z,9.443675
2023-03-05T03:30:06.558Z,9.443677
2023-03-05T03:31:06.611Z,9.443661
2023-03-05T03:32:06.452Z,9.443646
2023-03-05T03:33:06.479Z,9.443609
2023-03-05T03:34:06.435Z,9.443640
2023-03-05T03:35:06.425Z,9.443681
2023-03-05T03:36:06.465Z,9.443717
2023-03-05T03:37:06.439Z,9.443651
2023-03-05T03:38:06.401Z,9.443636
2023-03-05T03:39:06.397Z,9.443691
2023-03-05T03:40:06.412Z,9.443750
2023-03-05T03:41:06.386Z,9.443756
2023-03-05T03:42:06.384Z,9.443729
2023-03-05T03:43:06.390Z,9.443623
2023-03-05T03:44:06.368Z,9.443632
2023-03-05T03:45:06.358Z,9.443773
2023-03-05T03:46:06.421Z,9.443819
2023-03-05T03:47:06.392Z,9.443802
2023-03-05T03:48:06.346Z,9.443712
2023-03-05T03:49:06.343Z,9.443577
2023-03-05T03:50:06.335Z,9.443796
2023-03-05T03:51:06.336Z,9.443860
2023-03-05T03:52:06.327Z,9.443797
2023-03-05T03:53:06.319Z,9.443728
2023-03-05T03:54:06.329Z,9.443787
2023-03-05T03:55:06.309Z,9.443833
2023-03-05T03:56:06.294Z,9.443853
2023-03-05T03:57:06.302Z,9.443871
2023-03-05T03:58:06.332Z,9.443839
2023-03-05T03:59:06.268Z,9.443760
2023-03-05T04:00:06.296Z,9.443745
2023-03-05T04:01:06.268Z,9.443808
2023-03-05T04:02:06.476Z,9.443824
2023-03-05T04:03:06.250Z,9.443875
2023-03-05T04:04:06.339Z,9.443856
2023-03-05T04:05:06.253Z,9.443885
2023-03-05T04:06:06.245Z,9.443835
2023-03-05T04:07:06.243Z,9.443857
2023-03-05T04:08:06.270Z,9.443828
2023-03-05T04:09:06.224Z,9.443830
2023-03-05T04:10:06.254Z,9.443759
2023-03-05T04:11:06.234Z,9.443760
2023-03-05T04:12:06.226Z,9.443665
2023-03-05T04:13:06.212Z,9.443675
2023-03-05T04:14:06.222Z,9.443698
2023-03-05T04:15:06.190Z,9.443703
2023-03-05T04:16:06.253Z,9.443673
2023-03-05T04:17:06.193Z,9.443686
2023-03-05T04:18:06.187Z,9.443709
2023-03-05T04:19:06.170Z,9.443663
2023-03-05T04:20:06.199Z,9.443806
2023-03-05T04:21:06.152Z,9.443796
2023-03-05T04:22:06.162Z,9.443834
2023-03-05T04:23:06.213Z,9.443798
2023-03-05T04:24:06.157Z,9.443710
2023-03-05T04:25:06.146Z,9.443508
2023-03-05T04:26:06.157Z,9.443649
2023-03-05T04:27:06.118Z,9.443794
2023-03-05T04:28:06.147Z,9.443565
2023-03-05T04:29:06.135Z,9.443629
2023-03-05T04:30:06.100Z,9.443676
2023-03-05T04:31:06.129Z,9.443739
2023-03-05T04:32:06.123Z,9.443777
2023-03-05T04:33:06.099Z,9.443797
2023-03-05T04:34:06.084Z,9.443701
2023-03-05T04:35:06.105Z,9.443611
2023-03-05T04:36:06.057Z,9.443664
2023-03-05T04:37:06.049Z,9.443796
2023-03-05T04:38:06.079Z,9.443807
2023-03-05T04:39:06.064Z,9.443783
2023-03-05T04:40:06.025Z,9.443789
2023-03-05T04:41:06.053Z,9.443764
2023-03-05T04:42:06.032Z,9.443813
2023-03-05T04:43:06.025Z,9.443764
2023-03-05T04:44:06.083Z,9.443752
2023-03-05T04:45:06.006Z,9.443767
2023-03-05T04:46:06.005Z,9.443791
2023-03-05T04:47:06.034Z,9.443836
2023-03-05T04:48:05.989Z,9.443758
2023-03-05T04:49:05.986Z,9.443739
2023-03-05T04:50:06.002Z,9.443811
2023-03-05T04:51:05.963Z,9.443792
2023-03-05T04:52:05.961Z,9.443812
2023-03-05T04:53:05.989Z,9.443857
2023-03-05T04:54:05.971Z,9.443844
2023-03-05T04:55:05.953Z,9.443898
2023-03-05T04:56:05.963Z,9.443834
2023-03-05T04:57:05.940Z,9.443956
2023-03-05T04:58:05.923Z,9.443983
2023-03-05T04:59:05.967Z,9.443886
2023-03-05T05:00:05.941Z,9.443802
2023-03-05T05:01:06.714Z,9.443815
2023-03-05T05:02:06.033Z,9.443695
2023-03-05T05:03:05.972Z,9.443769
2023-03-05T05:04:05.944Z,9.443817
2023-03-05T05:05:05.889Z,9.443791
2023-03-05T05:06:05.988Z,9.443859
2023-03-05T05:07:05.883Z,9.443911
2023-03-05T05:08:06.046Z,9.443760
2023-03-05T05:09:05.857Z,9.443830
2023-03-05T05:10:06.520Z,9.443762
2023-03-05T05:11:05.858Z,9.443777
2023-03-05T05:12:05.850Z,9.443789
2023-03-05T05:13:06.002Z,9.443778
2023-03-05T05:14:05.904Z,9.443783
2023-03-05T05:15:05.941Z,9.443857
2023-03-05T05:16:05.867Z,9.443815
2023-03-05T05:17:05.865Z,9.443755
2023-03-05T05:18:05.838Z,9.443712
2023-03-05T05:19:05.870Z,9.443628
2023-03-05T05:20:05.825Z,9.443774
2023-03-05T05:21:05.797Z,9.443746
2023-03-05T05:22:05.834Z,9.443736
2023-03-05T05:23:05.814Z,9.443780
2023-03-05T05:24:05.786Z,9.443767
2023-03-05T05:25:05.806Z,9.443742
2023-03-05T05:26:05.757Z,9.443723
2023-03-05T05:27:05.764Z,9.443749
2023-03-05T05:28:05.816Z,9.443764
2023-03-05T05:29:05.776Z,9.443734
2023-03-05T05:30:05.758Z,9.443719
2023-03-05T05:31:05.777Z,9.443692
2023-03-05T05:32:05.803Z,9.443683
2023-03-05T05:33:05.745Z,9.443686
2023-03-05T05:34:05.754Z,9.443725
2023-03-05T05:35:05.733Z,9.443734
2023-03-05T05:36:05.712Z,9.443738
2023-03-05T05:37:05.737Z,9.443739
2023-03-05T05:38:05.728Z,9.443755
2023-03-05T05:39:05.701Z,9.443779
2023-03-05T05:40:05.744Z,9.443798
2023-03-05T05:41:05.682Z,9.443797
2023-03-05T05:42:05.672Z,9.443774
2023-03-05T05:43:05.730Z,9.443774
2023-03-05T05:44:05.671Z,9.443810
2023-03-05T05:45:05.685Z,9.443743
2023-03-05T05:46:05.856Z,9.443756
2023-03-05T05:47:05.660Z,9.443699
2023-03-05T05:48:05.699Z,9.443756
2023-03-05T05:49:05.701Z,9.443723
2023-03-05T05:50:05.648Z,9.443738
2023-03-05T05:51:05.617Z,9.443687
2023-03-05T05:52:05.655Z,9.443735
2023-03-05T05:53:05.629Z,9.443699
2023-03-05T05:54:05.632Z,9.443709
2023-03-05T05:55:05.692Z,9.443805
2023-03-05T05:56:05.595Z,9.443772
2023-03-05T05:57:05.594Z,9.443784
2023-03-05T05:58:05.614Z,9.443872
2023-03-05T05:59:05.636Z,9.443853
2023-03-05T06:00:05.604Z,9.443805
2023-03-05T06:01:05.651Z,9.443766
2023-03-05T06:02:05.644Z,9.443747
2023-03-05T06:03:05.639Z,9.443738
2023-03-05T06:04:05.549Z,9.443762
2023-03-05T06:05:05.596Z,9.443800
2023-03-05T06:06:05.599Z,9.443666
2023-03-05T06:07:05.533Z,9.443736
2023-03-05T06:08:05.553Z,9.443693
2023-03-05T06:09:05.528Z,9.443744
2023-03-05T06:10:05.566Z,9.443803
2023-03-05T06:11:05.565Z,9.443720
2023-03-05T06:12:05.581Z,9.443712
2023-03-05T06:13:05.498Z,9.443763
2023-03-05T06:14:05.529Z,9.443762
2023-03-05T06:15:05.510Z,9.443705
2023-03-05T06:16:05.525Z,9.443588
2023-03-05T06:17:05.523Z,9.443642
2023-03-05T06:18:05.471Z,9.443676
2023-03-05T06:19:05.471Z,9.443549
2023-03-05T06:20:05.483Z,9.443616
2023-03-05T06:21:05.478Z,9.443564
2023-03-05T06:22:05.448Z,9.443591
2023-03-05T06:23:05.464Z,9.443545
2023-03-05T06:24:05.436Z,9.443533
2023-03-05T06:25:05.440Z,9.443642
2023-03-05T06:26:05.607Z,9.443717
2023-03-05T06:27:05.419Z,9.443756
2023-03-05T06:28:05.445Z,9.443733
2023-03-05T06:29:05.437Z,9.443812
2023-03-05T06:30:05.402Z,9.443797
2023-03-05T06:31:05.453Z,9.443789
2023-03-05T06:32:05.431Z,9.443697
2023-03-05T06:33:05.386Z,9.443677
2023-03-05T06:34:05.389Z,9.443698
2023-03-05T06:35:05.418Z,9.443697
2023-03-05T06:36:05.384Z,9.443680
2023-03-05T06:37:05.373Z,9.443707
2023-03-05T06:38:05.396Z,9.443727
2023-03-05T06:39:05.342Z,9.443748
2023-03-05T06:40:05.341Z,9.443757
2023-03-05T06:41:05.360Z,9.443690
2023-03-05T06:42:05.355Z,9.443748
2023-03-05T06:43:06.243Z,9.443707
2023-03-05T06:44:05.328Z,9.443757
2023-03-05T06:45:05.322Z,9.443763
2023-03-05T06:46:05.393Z,9.443767
2023-03-05T06:47:06.324Z,9.443711
2023-03-05T06:48:05.307Z,9.443720
2023-03-05T06:49:05.326Z,9.443785
2023-03-05T06:50:05.325Z,9.443736
2023-03-05T06:51:05.293Z,9.443716
2023-03-05T06:52:05.276Z,9.443679
2023-03-05T06:53:05.268Z,9.443681
2023-03-05T06:54:06.121Z,9.443660
2023-03-05T06:55:05.290Z,9.443751
2023-03-05T06:56:05.337Z,9.443722
2023-03-05T06:57:05.279Z,9.443764
2023-03-05T06:58:05.243Z,9.443666
2023-03-05T06:59:05.277Z,9.443687
2023-03-05T07:00:05.238Z,9.443677
2023-03-05T07:01:05.276Z,9.443686
2023-03-05T07:02:05.314Z,9.443624
2023-03-05T07:03:05.211Z,9.443792
2023-03-05T07:04:05.229Z,9.443774
2023-03-05T07:05:05.214Z,9.443772
2023-03-05T07:06:05.205Z,9.443740
2023-03-05T07:07:05.233Z,9.443482
2023-03-05T07:08:05.186Z,9.443546
2023-03-05T07:09:05.465Z,9.443589
2023-03-05T07:10:05.221Z,9.443732
2023-03-05T07:11:05.179Z,9.443708
2023-03-05T07:12:05.199Z,9.443775
2023-03-05T07:13:05.168Z,9.443767
2023-03-05T07:14:05.313Z,9.443716
2023-03-05T07:15:05.146Z,9.443765
2023-03-05T07:16:05.182Z,9.443763
2023-03-05T07:17:05.132Z,9.443742
2023-03-05T07:18:05.184Z,9.443702
2023-03-05T07:19:05.158Z,9.443724
2023-03-05T07:20:05.134Z,9.443685
2023-03-05T07:21:05.211Z,9.443733
2023-03-05T07:22:05.098Z,9.443775
2023-03-05T07:23:05.181Z,9.443792
2023-03-05T07:24:05.180Z,9.443802
2023-03-05T07:25:05.112Z,9.443712
2023-03-05T07:26:05.072Z,9.443726
2023-03-05T07:27:05.105Z,9.443706
2023-03-05T07:28:05.155Z,9.443709
2023-03-05T07:29:05.158Z,9.443690
2023-03-05T07:30:05.200Z,9.443658
2023-03-05T07:31:05.122Z,9.443697
2023-03-05T07:32:05.147Z,9.443693
2023-03-05T07:33:05.067Z,9.443670
2023-03-05T07:34:05.080Z,9.443617
2023-03-05T07:35:05.023Z,9.443641
2023-03-05T07:36:05.108Z,9.443676
2023-03-05T07:37:05.014Z,9.443678
2023-03-05T07:38:05.012Z,9.443731
2023-03-05T07:39:05.059Z,9.443729
2023-03-05T07:40:05.060Z,9.443651
2023-03-05T07:41:04.985Z,9.443715
2023-03-05T07:42:04.984Z,9.443660
2023-03-05T07:43:04.987Z,9.443705
2023-03-05T07:44:04.962Z,9.443735
2023-03-05T07:45:04.992Z,9.443654
2023-03-05T07:46:05.131Z,9.443739
2023-03-05T07:47:04.934Z,9.443658
2023-03-05T07:48:05.100Z,9.443669
2023-03-05T07:49:04.948Z,9.443552
2023-03-05T07:50:04.934Z,9.443647
2023-03-05T07:51:04.939Z,9.443715
2023-03-05T07:52:04.919Z,9.443553
2023-03-05T07:53:04.933Z,9.443595
2023-03-05T07:54:04.906Z,9.443645
2023-03-05T07:55:04.906Z,9.443675
2023-03-05T07:56:04.945Z,9.443645
2023-03-05T07:57:04.943Z,9.443671
2023-03-05T07:58:04.891Z,9.443623
2023-03-05T07:59:04.898Z,9.443626
2023-03-05T08:00:04.868Z,9.443602
2023-03-05T08:01:04.866Z,9.443582
2023-03-05T08:02:05.040Z,9.443603
2023-03-05T08:03:04.880Z,9.443642
2023-03-05T08:04:04.893Z,9.443663
2023-03-05T08:05:05.518Z,9.443714
2023-03-05T08:06:04.821Z,9.443682
2023-03-05T08:07:04.842Z,9.443709
2023-03-05T08:08:04.825Z,9.443715
2023-03-05T08:09:04.814Z,9.443712
2023-03-05T08:10:04.814Z,9.443587
2023-03-05T08:11:04.821Z,9.443594
2023-03-05T08:12:04.845Z,9.443572
2023-03-05T08:13:04.784Z,9.443659
2023-03-05T08:14:04.803Z,9.443642
2023-03-05T08:15:04.800Z,9.443733
2023-03-05T08:16:04.817Z,9.443710
2023-03-05T08:17:04.762Z,9.443754
2023-03-05T08:18:04.784Z,9.443769
2023-03-05T08:19:04.754Z,9.443740
2023-03-05T08:20:04.767Z,9.443718
2023-03-05T08:21:04.750Z,9.443691
2023-03-05T08:22:04.716Z,9.443714
2023-03-05T08:23:04.734Z,9.443704
2023-03-05T08:24:04.754Z,9.443724
2023-03-05T08:25:04.748Z,9.443727
2023-03-05T08:26:04.708Z,9.443728
2023-03-05T08:27:04.740Z,9.443719
2023-03-05T08:28:04.700Z,9.443775
2023-03-05T08:29:04.687Z,9.443733
2023-03-05T08:30:04.730Z,9.443730
2023-03-05T08:31:04.686Z,9.443774
2023-03-05T08:32:04.678Z,9.443766
2023-03-05T08:33:04.718Z,9.443733
2023-03-05T08:34:04.661Z,9.443730
2023-03-05T08:35:04.661Z,9.443813
2023-03-05T08:36:04.698Z,9.443815
2023-03-05T08:37:13.499Z,9.443771
2023-03-05T08:38:04.643Z,9.443745
2023-03-05T08:39:04.641Z,9.443735
2023-03-05T08:40:04.645Z,9.443760
2023-03-05T08:41:04.628Z,9.443726
2023-03-05T08:42:04.665Z,9.443716
2023-03-05T08:43:04.618Z,9.443766
2023-03-05T08:44:04.599Z,9.443756
2023-03-05T08:45:04.635Z,9.443769
2023-03-05T08:46:04.578Z,9.443748
2023-03-05T08:47:04.586Z,9.443787
2023-03-05T08:48:04.614Z,9.443757
2023-03-05T08:49:04.577Z,9.443682
2023-03-05T08:50:04.550Z,9.443657
2023-03-05T08:51:04.584Z,9.443753
2023-03-05T08:52:04.575Z,9.443711
2023-03-05T08:53:04.672Z,9.443745
2023-03-05T08:54:04.571Z,9.443679
2023-03-05T08:55:04.530Z,9.443652
2023-03-05T08:56:04.550Z,9.443650
2023-03-05T08:57:04.543Z,9.443705
2023-03-05T08:58:04.560Z,9.443826
2023-03-05T08:59:04.512Z,9.443669
2023-03-05T09:00:04.502Z,9.443698
2023-03-05T09:01:04.560Z,9.443596
2023-03-05T09:02:04.549Z,9.443619
2023-03-05T09:03:04.498Z,9.443622
2023-03-05T09:04:04.495Z,9.443630
2023-03-05T09:05:04.500Z,9.443685
2023-03-05T09:06:04.475Z,9.443671
2023-03-05T09:07:04.485Z,9.443686
2023-03-05T09:08:05.369Z,9.443665
2023-03-05T09:09:04.474Z,9.443629
2023-03-05T09:10:04.478Z,9.443584
2023-03-05T09:11:04.430Z,9.443660
2023-03-05T09:12:04.488Z,9.443661
2023-03-05T09:13:05.106Z,9.443697
2023-03-05T09:14:04.480Z,9.443651
2023-03-05T09:15:04.430Z,9.443597
2023-03-05T09:16:04.496Z,9.443634
2023-03-05T09:17:04.495Z,9.443667
2023-03-05T09:18:04.459Z,9.443703
2023-03-05T09:19:04.428Z,9.443711
2023-03-05T09:20:04.440Z,9.443636
2023-03-05T09:21:04.404Z,9.443673
2023-03-05T09:22:04.409Z,9.443683
2023-03-05T09:23:04.420Z,9.443675
2023-03-05T09:24:04.415Z,9.443590
2023-03-05T09:25:04.461Z,9.443653
2023-03-05T09:26:04.375Z,9.443683
2023-03-05T09:27:04.365Z,9.443657
2023-03-05T09:28:04.400Z,9.443678
2023-03-05T09:29:04.343Z,9.443697
2023-03-05T09:30:04.327Z,9.443684
2023-03-05T09:31:04.341Z,9.443663
2023-03-05T09:32:04.528Z,9.443635
2023-03-05T09:33:04.450Z,9.443621
2023-03-05T09:34:04.311Z,9.443640
2023-03-05T09:35:04.315Z,9.443644
2023-03-05T09:36:04.279Z,9.443675
2023-03-05T09:37:04.321Z,9.443694
2023-03-05T09:38:04.337Z,9.443677
2023-03-05T09:39:04.274Z,9.443714
2023-03-05T09:40:04.340Z,9.443707
2023-03-05T09:41:04.272Z,9.443719
2023-03-05T09:42:04.295Z,9.443699
2023-03-05T09:43:04.249Z,9.443729
2023-03-05T09:44:04.351Z,9.443678
2023-03-05T09:45:04.259Z,9.443624
2023-03-05T09:46:04.382Z,9.443671
2023-03-05T09:47:04.253Z,9.443697
2023-03-05T09:48:04.249Z,9.443699
2023-03-05T09:49:04.347Z,9.443720
2023-03-05T09:50:04.208Z,9.443684
2023-03-05T09:51:04.197Z,9.443670
2023-03-05T09:52:04.195Z,9.443723
2023-03-05T09:53:04.250Z,9.443604
2023-03-05T09:54:04.179Z,9.443685
2023-03-05T09:55:04.212Z,9.443677
2023-03-05T09:56:04.185Z,9.443638
2023-03-05T09:57:04.227Z,9.443666
2023-03-05T09:58:04.188Z,9.443672
2023-03-05T09:59:04.235Z,9.443641
2023-03-05T10:00:04.194Z,9.443635
2023-03-05T10:01:04.154Z,9.443629
2023-03-05T10:02:04.154Z,9.443673
2023-03-05T10:03:04.295Z,9.443716
2023-03-05T10:04:04.177Z,9.443698
2023-03-05T10:05:04.225Z,9.443717
2023-03-05T10:06:04.166Z,9.443666
2023-03-05T10:07:04.116Z,9.443661
2023-03-05T10:08:04.111Z,9.443663
2023-03-05T10:09:04.098Z,9.443653
2023-03-05T10:10:04.164Z,9.443651
2023-03-05T10:11:04.074Z,9.443645
2023-03-05T10:12:04.106Z,9.443620
2023-03-05T10:13:04.071Z,9.443604
2023-03-05T10:14:04.112Z,9.443620
2023-03-05T10:15:04.063Z,9.443622
2023-03-05T10:16:04.098Z,9.443640
2023-03-05T10:17:04.046Z,9.443670
2023-03-05T10:18:04.063Z,9.443583
2023-03-05T10:19:04.580Z,9.443574
2023-03-05T10:20:04.016Z,9.443657
2023-03-05T10:21:04.053Z,9.443647
2023-03-05T10:22:04.046Z,9.443647
2023-03-05T10:23:04.052Z,9.443639
2023-03-05T10:24:04.055Z,9.443690
2023-03-05T10:25:04.016Z,9.443708
2023-03-05T10:26:04.024Z,9.443734
2023-03-05T10:27:04.044Z,9.443684
2023-03-05T10:28:03.997Z,9.443706
2023-03-05T10:29:03.992Z,9.443545
2023-03-05T10:30:03.985Z,9.443645
2023-03-05T10:31:03.977Z,9.443828
2023-03-05T10:32:04.109Z,9.443861
2023-03-05T10:33:04.016Z,9.444058
2023-03-05T10:34:03.943Z,9.444148
2023-03-05T10:35:03.951Z,9.443758
2023-03-05T10:36:03.937Z,9.443740
2023-03-05T10:37:03.963Z,9.443728
2023-03-05T10:38:03.938Z,9.443724
2023-03-05T10:39:03.970Z,9.443904
2023-03-05T10:40:03.904Z,9.443654
2023-03-05T10:41:03.937Z,9.443583
2023-03-05T10:42:03.937Z,9.443683
2023-03-05T10:43:03.902Z,9.443726
2023-03-05T10:44:03.899Z,9.443810
2023-03-05T10:45:03.912Z,9.443364
2023-03-05T10:46:03.968Z,9.443612
2023-03-05T10:47:03.872Z,9.443577
2023-03-05T10:48:04.508Z,9.443863
2023-03-05T10:49:03.851Z,9.443637
2023-03-05T10:50:03.869Z,9.443832
2023-03-05T10:51:03.850Z,9.443848
2023-03-05T10:52:03.840Z,9.443758
2023-03-05T10:53:03.872Z,9.443873
2023-03-05T10:54:03.879Z,9.443894
2023-03-05T10:55:03.855Z,9.443888
2023-03-05T10:56:03.827Z,9.443776
2023-03-05T10:57:03.832Z,9.443768
2023-03-05T10:58:03.815Z,9.443787
2023-03-05T10:59:03.839Z,9.443816
2023-03-05T11:00:03.812Z,9.443630
2023-03-05T11:01:03.803Z,9.443748
2023-03-05T11:02:03.815Z,9.443867
2023-03-05T11:03:03.786Z,9.443799
2023-03-05T11:04:03.854Z,9.443818
2023-03-05T11:05:05.262Z,9.443650
2023-03-05T11:06:04.768Z,9.443818
2023-03-05T11:07:03.758Z,9.443595
2023-03-05T11:08:03.767Z,9.443610
2023-03-05T11:09:03.759Z,9.443689
2023-03-05T11:10:03.772Z,9.443877
2023-03-05T11:11:04.182Z,9.443914
2023-03-05T11:12:04.800Z,9.443813
2023-03-05T11:13:03.712Z,9.443726
2023-03-05T11:14:03.761Z,9.443716
2023-03-05T11:15:03.738Z,9.443743
2023-03-05T11:16:03.799Z,9.443778
2023-03-05T11:17:03.678Z,9.443798
2023-03-05T11:18:04.594Z,9.443792
2023-03-05T11:19:03.788Z,9.443748
2023-03-05T11:20:03.697Z,9.443649
2023-03-05T11:21:03.675Z,9.443744
2023-03-05T11:22:03.659Z,9.443785
2023-03-05T11:23:03.656Z,9.443833
2023-03-05T11:24:03.659Z,9.443806
2023-03-05T11:25:03.655Z,9.443788
2023-03-05T11:26:03.651Z,9.443823
2023-03-05T11:27:03.614Z,9.443789
2023-03-05T11:28:03.641Z,9.443727
2023-03-05T11:29:03.622Z,9.443642
2023-03-05T11:30:03.616Z,9.443721
2023-03-05T11:31:03.638Z,9.443773
2023-03-05T11:32:03.598Z,9.443702
2023-03-05T11:33:03.598Z,9.443697
2023-03-05T11:34:03.616Z,9.443627
2023-03-05T11:35:03.583Z,9.443691
2023-03-05T11:36:03.576Z,9.443644
2023-03-05T11:37:03.602Z,9.443564
2023-03-05T11:38:03.555Z,9.443666
2023-03-05T11:39:03.605Z,9.443658
2023-03-05T11:40:03.554Z,9.443709
2023-03-05T11:41:04.539Z,9.443690
2023-03-05T11:42:03.524Z,9.443658
2023-03-05T11:43:03.560Z,9.443648
2023-03-05T11:44:03.525Z,9.443645